createdAt,value
2022-08-07T00:04:16.851Z,15.54
2022-08-07T00:09:24.050Z,15.52
2022-08-07T00:14:32.247Z,15.52
2022-08-07T00:19:39.075Z,15.58
2022-08-07T00:24:47.927Z,15.59
2022-08-07T00:29:54.857Z,15.55
2022-08-07T00:35:02.003Z,15.5
2022-08-07T00:40:09.478Z,15.42
2022-08-07T00:45:18.090Z,15.44
2022-08-07T00:50:25.498Z,15.46
2022-08-07T00:55:32.943Z,15.48
2022-08-07T01:00:40.495Z,15.54
2022-08-07T01:05:48.872Z,15.57
2022-08-07T01:10:55.594Z,15.59
2022-08-07T01:16:03.913Z,15.59
2022-08-07T01:21:11.065Z,15.6
2022-08-07T01:26:34.928Z,15.62
2022-08-07T01:31:41.684Z,15.66
2022-08-07T01:36:49.368Z,15.67
2022-08-07T01:41:57.977Z,15.62
2022-08-07T01:47:06.162Z,15.62
2022-08-07T01:52:14.795Z,15.61
2022-08-07T01:57:21.498Z,15.69
2022-08-07T02:02:28.702Z,15.72
2022-08-07T02:09:07.663Z,15.57
2022-08-07T02:14:14.129Z,15.24
2022-08-07T02:19:22.251Z,15.05
2022-08-07T02:24:30.811Z,14.94
2022-08-07T02:29:39.061Z,14.84
2022-08-07T02:34:46.622Z,14.72
2022-08-07T02:39:53.208Z,14.63
2022-08-07T02:45:01.785Z,14.61
2022-08-07T02:50:08.864Z,14.58
2022-08-07T02:55:21.819Z,14.59
2022-08-07T03:00:28.401Z,14.58
2022-08-07T03:05:36.740Z,14.62
2022-08-07T03:10:44.078Z,14.61
2022-08-07T03:15:53.050Z,14.61
2022-08-07T03:21:01.129Z,14.63
2022-08-07T03:26:09.061Z,14.63
2022-08-07T03:31:17.337Z,14.62
2022-08-07T03:36:25.328Z,14.61
2022-08-07T03:41:32.054Z,14.6
2022-08-07T03:46:39.511Z,14.58
2022-08-07T03:51:47.428Z,14.61
2022-08-07T03:56:54.612Z,14.67
2022-08-07T04:02:02.436Z,14.72
2022-08-07T04:07:09.006Z,14.75
2022-08-07T04:12:16.854Z,14.79
2022-08-07T04:17:25.292Z,14.83
2022-08-07T04:22:33.360Z,14.86
2022-08-07T04:27:40.337Z,14.96
2022-08-07T04:32:48.789Z,15.04
2022-08-07T04:37:57.272Z,15.18
2022-08-07T04:43:05.110Z,15.29
2022-08-07T04:48:12.795Z,15.4
2022-08-07T04:53:21.356Z,15.44
2022-08-07T04:58:28.725Z,15.55
2022-08-07T05:03:37.690Z,15.67
2022-08-07T05:08:45.037Z,15.83
2022-08-07T05:13:53.118Z,15.98
2022-08-07T05:19:00.483Z,16.07
2022-08-07T05:24:09.488Z,16.16
2022-08-07T05:29:17.035Z,16.32
2022-08-07T05:34:25.229Z,16.54
2022-08-07T05:39:34.096Z,16.74
2022-08-07T05:44:41.819Z,17.02
2022-08-07T05:49:49.193Z,17.2
2022-08-07T05:54:57.875Z,17.43
2022-08-07T06:00:06.412Z,17.69
2022-08-07T06:05:13.460Z,17.85
2022-08-07T06:10:21.042Z,18.12
2022-08-07T06:15:29.646Z,18.47
2022-08-07T06:20:36.054Z,19.0
2022-08-07T06:25:43.902Z,19.59
2022-08-07T06:30:52.884Z,19.8
2022-08-07T06:35:59.803Z,20.14
2022-08-07T06:41:08.126Z,20.76
2022-08-07T06:46:16.190Z,21.18
2022-08-07T06:51:24.155Z,22.36
2022-08-07T06:56:32.379Z,24.78
2022-08-07T07:01:41.204Z,26.46
2022-08-07T07:06:48.979Z,27.9
2022-08-07T07:11:56.647Z,29.66
2022-08-07T07:17:06.066Z,28.75
2022-08-07T07:22:12.690Z,30.33
2022-08-07T07:27:21.044Z,29.44
2022-08-07T07:32:42.747Z,27.52
2022-08-07T07:38:02.838Z,25.93
2022-08-07T07:43:11.637Z,24.72
2022-08-07T07:48:21.279Z,24.02
2022-08-07T07:53:29.203Z,23.86
2022-08-07T07:58:37.018Z,23.57
2022-08-07T08:03:44.858Z,23.47
2022-08-07T08:08:52.102Z,23.62
2022-08-07T08:13:59.750Z,23.88
2022-08-07T08:19:07.805Z,26.58
2022-08-07T08:24:15.776Z,29.08
2022-08-07T08:29:23.756Z,30.26
2022-08-07T08:34:31.294Z,28.72
2022-08-07T08:39:39.728Z,28.57
2022-08-07T08:44:47.625Z,29.06
2022-08-07T08:49:55.834Z,29.21
2022-08-07T08:55:02.754Z,29.86
2022-08-07T09:00:10.935Z,29.97
2022-08-07T09:05:20.085Z,30.28
2022-08-07T09:10:27.447Z,29.36
2022-08-07T09:15:35.981Z,29.78
2022-08-07T09:20:49.687Z,30.72
2022-08-07T09:25:57.342Z,31.7
2022-08-07T09:31:04.145Z,32.42
2022-08-07T09:36:13.048Z,32.64
2022-08-07T09:41:21.962Z,33.3
2022-08-07T09:46:29.343Z,32.08
2022-08-07T09:51:37.691Z,30.54
2022-08-07T09:56:44.383Z,30.32
2022-08-07T10:01:52.729Z,29.14
2022-08-07T10:07:01.451Z,28.01
2022-08-07T10:12:09.238Z,27.47
2022-08-07T10:17:17.292Z,27.62
2022-08-07T10:22:25.723Z,27.71
2022-08-07T10:27:32.959Z,27.26
2022-08-07T10:32:39.924Z,27.25
2022-08-07T10:37:47.899Z,27.28
2022-08-07T10:42:55.660Z,27.04
2022-08-07T10:48:02.763Z,26.96
2022-08-07T10:53:10.073Z,26.72
2022-08-07T10:58:17.964Z,26.64
2022-08-07T11:03:24.377Z,26.94
2022-08-07T11:08:32.737Z,26.96
2022-08-07T11:13:39.635Z,27.54
2022-08-07T11:18:47.641Z,28.07
2022-08-07T11:23:53.816Z,27.76
2022-08-07T11:29:01.478Z,28.72
2022-08-07T11:34:08.832Z,28.5
2022-08-07T11:39:16.728Z,27.94
2022-08-07T11:44:24.316Z,27.42
2022-08-07T11:49:37.497Z,26.84
2022-08-07T11:54:45.530Z,26.4
2022-08-07T11:59:52.601Z,26.29
2022-08-07T12:05:00.373Z,26.3
2022-08-07T12:10:08.190Z,26.44
2022-08-07T12:15:16.780Z,26.86
2022-08-07T12:20:24.939Z,27.03
2022-08-07T12:25:34.171Z,27.22
2022-08-07T12:30:41.496Z,27.6
2022-08-07T12:35:54.421Z,27.68
2022-08-07T12:41:00.378Z,27.39
2022-08-07T12:46:08.152Z,27.66
2022-08-07T12:51:15.354Z,27.81
2022-08-07T12:56:23.238Z,27.78
2022-08-07T13:01:31.320Z,27.58
2022-08-07T13:06:38.469Z,27.48
2022-08-07T13:11:45.573Z,27.16
2022-08-07T13:16:53.386Z,26.93
2022-08-07T13:22:01.244Z,26.51
2022-08-07T13:27:09.038Z,26.94
2022-08-07T13:32:16.730Z,27.76
2022-08-07T13:37:24.694Z,28.34
2022-08-07T13:42:33.692Z,28.2
2022-08-07T13:47:41.311Z,27.6
2022-08-07T13:52:47.583Z,27.6
2022-08-07T13:57:55.737Z,28.23
2022-08-07T14:03:02.884Z,28.83
2022-08-07T14:08:10.100Z,28.42
2022-08-07T14:13:17.696Z,28.22
2022-08-07T14:18:25.285Z,28.38
2022-08-07T14:23:32.732Z,28.54
2022-08-07T14:28:40.597Z,28.22
2022-08-07T14:33:46.493Z,28.0
2022-08-07T14:39:02.158Z,27.61
2022-08-07T14:44:09.179Z,27.52
2022-08-07T14:49:17.636Z,27.6
2022-08-07T14:54:24.506Z,27.36
2022-08-07T14:59:32.065Z,27.28
2022-08-07T15:04:39.330Z,26.73
2022-08-07T15:09:47.131Z,26.4
2022-08-07T15:14:55.442Z,25.94
2022-08-07T15:20:03.417Z,25.99
2022-08-07T15:25:11.278Z,25.9
2022-08-07T15:30:19.037Z,26.04
2022-08-07T15:35:26.299Z,25.93
2022-08-07T15:40:33.892Z,25.86
2022-08-07T15:45:41.462Z,25.88
2022-08-07T15:50:49.592Z,25.9
2022-08-07T15:55:57.696Z,25.88
2022-08-07T16:01:06.544Z,25.78
2022-08-07T16:06:15.640Z,25.42
2022-08-07T16:11:22.944Z,24.88
2022-08-07T16:16:37.979Z,24.5
2022-08-07T16:21:45.591Z,24.1
2022-08-07T16:26:53.750Z,23.78
2022-08-07T16:32:00.730Z,23.49
2022-08-07T16:37:08.903Z,23.16
2022-08-07T16:42:16.823Z,22.96
2022-08-07T16:47:23.742Z,22.72
2022-08-07T16:52:31.540Z,22.52
2022-08-07T16:57:38.135Z,22.34
2022-08-07T17:02:45.335Z,22.16
2022-08-07T17:07:52.587Z,21.92
2022-08-07T17:12:59.105Z,21.68
2022-08-07T17:18:07.261Z,21.44
2022-08-07T17:23:15.616Z,21.25
2022-08-07T17:28:23.264Z,21.1
2022-08-07T17:33:30.391Z,20.88
2022-08-07T17:38:38.164Z,20.72
2022-08-07T17:43:46.374Z,20.53
2022-08-07T17:48:53.334Z,20.29
2022-08-07T17:54:02.063Z,20.17
2022-08-07T17:59:10.019Z,20.06
2022-08-07T18:04:26.324Z,19.97
2022-08-07T18:09:33.015Z,19.89
2022-08-07T18:14:40.599Z,19.79
2022-08-07T18:19:49.134Z,19.69
2022-08-07T18:24:58.327Z,19.56
2022-08-07T18:30:06.254Z,19.46
2022-08-07T18:35:14.116Z,19.36
2022-08-07T18:40:21.337Z,19.29
2022-08-07T18:45:29.175Z,19.22
2022-08-07T18:50:36.458Z,19.2
2022-08-07T18:55:58.940Z,19.15
2022-08-07T19:01:05.500Z,19.11
2022-08-07T19:06:13.298Z,19.03
2022-08-07T19:11:20.840Z,18.97
2022-08-07T19:16:28.384Z,18.85
2022-08-07T19:21:36.447Z,18.72
2022-08-07T19:26:43.795Z,18.69
2022-08-07T19:31:53.176Z,18.64
2022-08-07T19:37:00.985Z,18.57
2022-08-07T19:42:08.860Z,18.48
2022-08-07T19:47:16.488Z,18.47
2022-08-07T19:52:26.390Z,18.43
2022-08-07T19:57:33.658Z,18.36
2022-08-07T20:02:42.234Z,18.34
2022-08-07T20:07:50.099Z,18.32
2022-08-07T20:12:58.205Z,18.2
2022-08-07T20:18:06.290Z,18.12
2022-08-07T20:23:12.887Z,18.04
2022-08-07T20:28:21.204Z,18.11
2022-08-07T20:33:28.551Z,18.11
2022-08-07T20:38:37.081Z,18.08
2022-08-07T20:43:45.354Z,17.99
2022-08-07T20:48:52.579Z,17.94
2022-08-07T20:54:01.623Z,17.96
2022-08-07T20:59:16.891Z,17.96
2022-08-07T21:04:23.837Z,17.97
2022-08-07T21:09:32.065Z,18.0
2022-08-07T21:14:39.566Z,17.97
2022-08-07T21:19:46.140Z,17.9
2022-08-07T21:24:53.704Z,17.8
2022-08-07T21:30:01.644Z,17.76
2022-08-07T21:35:09.640Z,17.71
2022-08-07T21:40:17.495Z,17.64
2022-08-07T21:45:24.098Z,17.58
2022-08-07T21:50:33.161Z,17.52
2022-08-07T21:55:40.380Z,17.56
2022-08-07T22:00:47.789Z,17.53
2022-08-07T22:05:55.414Z,17.54
2022-08-07T22:11:03.688Z,17.49
2022-08-07T22:16:11.849Z,17.52
2022-08-07T22:21:20.021Z,17.5
2022-08-07T22:26:27.925Z,17.48
2022-08-07T22:31:35.451Z,17.49
2022-08-07T22:36:42.453Z,17.48
2022-08-07T22:41:50.093Z,17.42
2022-08-07T22:46:59.275Z,17.39
2022-08-07T22:52:06.280Z,17.38
2022-08-07T22:57:14.814Z,17.38
2022-08-07T23:02:22.408Z,17.34
2022-08-07T23:07:30.472Z,17.41
2022-08-07T23:12:37.338Z,17.4
2022-08-07T23:17:43.926Z,17.32
2022-08-07T23:22:51.725Z,17.21
2022-08-07T23:27:58.940Z,17.15
2022-08-07T23:33:06.778Z,17.12
2022-08-07T23:38:14.649Z,17.14
2022-08-07T23:43:22.392Z,17.04
2022-08-07T23:48:30.282Z,16.93
2022-08-07T23:53:37.833Z,16.96
2022-08-07T23:58:45.625Z,16.98
